»·PEaware :: N8674U KBFL-KMHV

N8674U :: KBFL-KMHV

FLIGHT INFORMATION

Flight Status: Arrived
Operator: Privately registered:
United States
More flights under this callsign
Pilot: Nijah A. (22345)
Aircraft: PIPER PA-28 CHEROKEE ARCHER
(PA28)
More flights by this aircraft type
Origin: KBFL Meadows
United States
Destination: KMHV Mojave
United States
More flights between these airports :: More routes between these airports
Route:
File this flight plan on PilotEdge
Remarks:
Altitude:
(Current/Filed)
7,500ft
Speed:
(Current/Filed)
115kts
Departed: 12-Nov-19 09:54 AM
Arrived: 12-Nov-19 10:35 AM
Distance/Time
Traveled:
49nm/0:40
Distance/Time
To Go:
Arrived

Flight Plot

Page will automatically refresh every two minutes.


Map Options




Map Legend


Flown Route
Filed Route
Departure Airport
Arrival Airport
Navaid (VOR, NDB)
Fix

Horizontal Profiles

Position Reports

Time Latitude Longitude Heading Altitude Ground
Speed
12-Nov-19 09:09 35.435705 -119.052043 179 511ft 0kts
12-Nov-19 09:10 35.435705 -119.052043 179 511ft 0kts
12-Nov-19 09:11 35.435705 -119.052043 179 511ft 0kts
12-Nov-19 09:12 35.435705 -119.052043 179 511ft 0kts
12-Nov-19 09:13 35.435705 -119.052043 179 511ft 0kts
12-Nov-19 09:14 35.435705 -119.052043 179 511ft 0kts
12-Nov-19 09:15 35.435705 -119.052043 179 511ft 0kts
12-Nov-19 09:16 35.435705 -119.052043 179 511ft 0kts
12-Nov-19 09:17 35.435705 -119.052043 179 511ft 0kts
12-Nov-19 09:18 35.435705 -119.052043 179 511ft 0kts
12-Nov-19 09:19 35.435705 -119.052043 179 511ft 0kts
12-Nov-19 09:20 35.435705 -119.052043 179 511ft 0kts
12-Nov-19 09:21 35.435705 -119.052043 179 511ft 0kts
12-Nov-19 09:22 35.435705 -119.052043 179 511ft 0kts
12-Nov-19 09:23 35.435705 -119.052043 179 511ft 0kts
12-Nov-19 09:24 35.435705 -119.052043 179 511ft 0kts
12-Nov-19 09:25 35.435705 -119.052043 179 511ft 0kts
12-Nov-19 09:26 35.435705 -119.052043 179 511ft 0kts
12-Nov-19 09:27 35.435705 -119.052043 179 511ft 0kts
12-Nov-19 09:28 35.435705 -119.052043 179 511ft 0kts
12-Nov-19 09:29 35.435705 -119.052043 179 511ft 0kts
12-Nov-19 09:30 35.435705 -119.052043 179 511ft 0kts
12-Nov-19 09:31 35.435705 -119.052043 179 511ft 0kts
12-Nov-19 09:32 35.435705 -119.052043 179 511ft 0kts
12-Nov-19 09:33 35.435705 -119.052043 179 511ft 0kts
12-Nov-19 09:34 35.435705 -119.052043 179 511ft 0kts
12-Nov-19 09:35 35.435705 -119.052043 179 511ft 0kts
12-Nov-19 09:36 35.435705 -119.052043 179 511ft 0kts
12-Nov-19 09:37 35.435705 -119.052043 179 511ft 0kts
12-Nov-19 09:38 35.435705 -119.052043 179 511ft 0kts
12-Nov-19 09:39 35.435705 -119.052043 179 511ft 0kts
12-Nov-19 09:40 35.435622 -119.052052 194 511ft 2kts
12-Nov-19 09:41 35.435427 -119.053354 234 511ft 0kts
12-Nov-19 09:42 35.435427 -119.053354 234 511ft 0kts
12-Nov-19 09:43 35.435427 -119.053354 234 511ft 0kts
12-Nov-19 09:44 35.435427 -119.053354 234 511ft 0kts
12-Nov-19 09:45 35.435427 -119.053354 234 511ft 0kts
12-Nov-19 09:46 35.435427 -119.053354 234 511ft 0kts
12-Nov-19 09:47 35.435216 -119.053674 228 511ft 10kts
12-Nov-19 09:48 35.431535 -119.051198 132 511ft 26kts
12-Nov-19 09:49 35.426226 -119.044771 142 511ft 15kts
12-Nov-19 09:50 35.425735 -119.044677 222 511ft 0kts
12-Nov-19 09:51 35.425735 -119.044677 222 511ft 0kts
12-Nov-19 09:52 35.425891 -119.046561 314 511ft 7kts
12-Nov-19 09:53 35.432711 -119.054803 316 676ft 69kts
12-Nov-19 09:54 35.446929 -119.071993 330 1151ft 74kts
12-Nov-19 09:55 35.452431 -119.054192 116 1568ft 85kts
12-Nov-19 09:56 35.436456 -119.031323 128 2050ft 89kts
12-Nov-19 09:57 35.421280 -119.007559 125 2546ft 87kts
12-Nov-19 09:58 35.408677 -118.982912 120 3040ft 82kts
12-Nov-19 09:59 35.397835 -118.958992 119 3497ft 79kts
12-Nov-19 10:00 35.387117 -118.934016 117 3909ft 86kts
12-Nov-19 10:01 35.375854 -118.907120 117 4320ft 91kts
12-Nov-19 10:02 35.364103 -118.878860 117 4725ft 94kts
12-Nov-19 10:03 35.352168 -118.850109 117 5126ft 94kts
12-Nov-19 10:04 35.340373 -118.821687 117 5522ft 92kts
12-Nov-19 10:05 35.328912 -118.794138 117 5913ft 89kts
12-Nov-19 10:06 35.318029 -118.768059 117 6288ft 83kts
12-Nov-19 10:07 35.307344 -118.742480 117 6595ft 84kts
12-Nov-19 10:08 35.296658 -118.716857 117 6885ft 84kts
12-Nov-19 10:09 35.285919 -118.691103 117 7160ft 85kts
12-Nov-19 10:10 35.274238 -118.662907 116 7251ft 105kts
12-Nov-19 10:11 35.259790 -118.628107 116 7245ft 121kts
12-Nov-19 10:12 35.244157 -118.590676 116 7244ft 125kts
12-Nov-19 10:13 35.228207 -118.552552 116 7243ft 124kts
12-Nov-19 10:14 35.212492 -118.515033 116 7243ft 123kts
12-Nov-19 10:16 35.196751 -118.477482 116 7244ft 125kts
12-Nov-19 10:17 35.180844 -118.439586 116 7243ft 125kts
12-Nov-19 10:18 35.164845 -118.401516 116 7243ft 125kts
12-Nov-19 10:19 35.148845 -118.363483 116 7243ft 126kts
12-Nov-19 10:20 35.133014 -118.325899 117 7243ft 126kts
12-Nov-19 10:21 35.116975 -118.287861 117 7243ft 126kts
12-Nov-19 10:22 35.101568 -118.249619 99 7242ft 125kts
12-Nov-19 10:23 35.075652 -118.230263 204 7247ft 124kts
12-Nov-19 10:24 35.043171 -118.245788 201 7243ft 125kts
12-Nov-19 10:25 35.010621 -118.261300 201 7243ft 126kts
12-Nov-19 10:26 34.978892 -118.277695 226 6988ft 117kts
12-Nov-19 10:27 34.985645 -118.308313 4 6343ft 112kts
12-Nov-19 10:28 35.003337 -118.278037 75 5973ft 116kts
12-Nov-19 10:29 35.015642 -118.240470 66 5481ft 120kts
12-Nov-19 10:30 35.030733 -118.203180 60 4691ft 127kts
12-Nov-19 10:31 35.041451 -118.176124 72 4000ft 116kts
12-Nov-19 10:32 35.045081 -118.150421 90 3520ft 92kts
12-Nov-19 10:33 35.052467 -118.127972 356 3314ft 79kts
12-Nov-19 10:34 35.059175 -118.149231 281 2796ft 42kts
12-Nov-19 10:34 35.059167 -118.156323 269 2796ft 19kts
12-Nov-19 10:36 35.058400 -118.157726 180 2796ft 0kts
12-Nov-19 10:37 35.058400 -118.157726 180 2796ft 0kts
12-Nov-19 10:37 35.056412 -118.160281 83 2796ft 3kts
12-Nov-19 10:38 35.056623 -118.160067 0 2796ft 0kts

Navigation Log

Ident Type
Flight plan parsing failed, navigation log unavailable